Time;durP1;ratioP1;P1;durP2;ratioP2;P2;SDS_P1;SDS_P2;PMS_P1;PMS_P2;Temp;Humidity;BMP_temperature;BMP_pressure;BME280_temperature;BME280_humidity;BME280_pressure;Samples;Min_cycle;Max_cycle;Signal;HPM_P1;HPM_P2
2022/12/12 00:01:57;;;;;;;23.95;15.75;;;4.80;94.30;;;;;;5071917;28;20036;-77
2022/12/12 00:04:23;;;;;;;29.10;16.45;;;4.70;94.40;;;;;;5071707;28;20038;-78
2022/12/12 00:06:49;;;;;;;25.23;16.30;;;4.60;94.00;;;;;;5074053;28;20028;-77
2022/12/12 00:09:14;;;;;;;22.80;14.80;;;4.60;94.20;;;;;;5074880;28;20139;-77
2022/12/12 00:11:40;;;;;;;24.08;15.13;;;4.50;94.30;;;;;;5075488;28;20025;-77
2022/12/12 00:14:06;;;;;;;23.98;14.73;;;4.60;94.40;;;;;;5075756;28;20040;-76
2022/12/12 00:16:31;;;;;;;23.52;15.77;;;4.60;94.20;;;;;;5076597;28;20033;-76
2022/12/12 00:18:57;;;;;;;23.95;15.75;;;4.70;94.20;;;;;;5076524;28;20036;-76
2022/12/12 00:21:26;;;;;;;22.50;15.23;;;4.70;94.10;;;;;;5076266;28;20024;-76
2022/12/12 00:23:52;;;;;;;24.20;15.50;;;4.60;94.00;;;;;;5074550;28;20052;-76
2022/12/12 00:26:21;;;;;;;23.90;15.55;;;4.60;94.00;;;;;;5075326;28;20424;-77
2022/12/12 00:28:48;;;;;;;23.85;15.45;;;4.50;93.80;;;;;;5076324;28;20041;-77
2022/12/12 00:31:14;;;;;;;21.33;14.02;;;4.50;94.00;;;;;;5076347;28;20024;-77
2022/12/12 00:33:40;;;;;;;26.55;15.82;;;4.50;94.00;;;;;;5075148;28;20457;-77
2022/12/12 00:36:06;;;;;;;26.92;16.85;;;4.60;94.10;;;;;;5076053;28;20073;-77
2022/12/12 00:38:32;;;;;;;25.30;16.35;;;4.60;94.00;;;;;;5075212;28;20040;-77
2022/12/12 00:40:59;;;;;;;26.70;15.70;;;4.50;94.20;;;;;;5076175;28;20035;-77
2022/12/12 00:43:26;;;;;;;25.48;16.88;;;4.40;94.30;;;;;;5075276;28;20035;-77
2022/12/12 00:45:52;;;;;;;25.98;16.38;;;4.40;94.50;;;;;;5075636;28;20075;-77
2022/12/12 00:48:18;;;;;;;24.85;16.45;;;4.40;94.60;;;;;;5076147;28;20051;-77
2022/12/12 00:50:44;;;;;;;24.85;16.17;;;4.40;94.60;;;;;;5075833;28;20500;-77
2022/12/12 00:53:12;;;;;;;23.65;15.98;;;4.50;94.60;;;;;;5075927;28;20024;-77
2022/12/12 00:55:38;;;;;;;25.75;16.50;;;4.50;94.60;;;;;;5075774;28;20020;-77
2022/12/12 00:58:03;;;;;;;28.02;16.88;;;4.60;94.60;;;;;;5057852;28;20036;-77
2022/12/12 01:00:29;;;;;;;24.85;16.40;;;4.60;94.60;;;;;;5075868;28;20031;-76
2022/12/12 01:02:56;;;;;;;24.00;16.35;;;4.60;94.60;;;;;;5075759;28;20028;-76
2022/12/12 01:05:22;;;;;;;27.35;17.17;;;4.60;94.50;;;;;;5074665;28;20230;-77
2022/12/12 01:07:48;;;;;;;27.38;17.98;;;4.50;94.40;;;;;;5074517;28;20477;-76
2022/12/12 01:10:13;;;;;;;25.52;17.23;;;4.40;94.50;;;;;;5073665;28;20163;-76
2022/12/12 01:12:39;;;;;;;25.55;16.00;;;4.50;94.60;;;;;;5074502;28;20107;-76
2022/12/12 01:15:06;;;;;;;24.02;16.02;;;4.50;94.80;;;;;;5074443;28;20127;-76
2022/12/12 01:17:36;;;;;;;24.10;16.33;;;4.60;94.50;;;;;;5075269;28;20048;-76
2022/12/12 01:20:04;;;;;;;28.67;17.73;;;4.60;94.50;;;;;;5075418;28;20059;-76
2022/12/12 01:22:30;;;;;;;25.13;16.65;;;4.60;94.30;;;;;;5075053;28;20031;-76
2022/12/12 01:24:56;;;;;;;26.02;16.85;;;4.50;94.30;;;;;;5074127;28;20127;-76
2022/12/12 01:27:22;;;;;;;25.85;16.95;;;4.50;94.40;;;;;;5075338;28;20039;-76
2022/12/12 01:29:48;;;;;;;27.98;17.40;;;4.60;94.40;;;;;;5075196;28;20025;-77
2022/12/12 01:32:14;;;;;;;27.23;17.65;;;4.50;94.40;;;;;;5074060;28;20372;-77
2022/12/12 01:34:39;;;;;;;27.00;17.90;;;4.50;94.20;;;;;;5075227;28;20029;-78
2022/12/12 01:37:05;;;;;;;25.40;17.45;;;4.50;94.20;;;;;;5075033;28;20186;-77
2022/12/12 01:39:31;;;;;;;29.42;18.80;;;4.50;94.30;;;;;;5073514;28;20032;-77
2022/12/12 01:41:56;;;;;;;27.90;18.63;;;4.50;94.30;;;;;;5073740;28;20416;-77
2022/12/12 01:44:47;;;;;;;28.88;18.58;;;4.40;94.30;;;;;;5090469;28;20043;-77
2022/12/12 01:47:15;;;;;;;28.73;17.95;;;4.30;94.50;;;;;;5073546;28;20048;-75
2022/12/12 01:49:44;;;;;;;26.83;16.95;;;4.30;94.60;;;;;;5074950;28;20024;-77
2022/12/12 01:52:22;;;;;;;27.45;17.73;;;4.30;94.70;;;;;;5074269;28;20024;-77
2022/12/12 01:54:53;;;;;;;24.95;17.08;;;4.40;94.60;;;;;;5074762;28;20037;-77
2022/12/12 01:57:35;;;;;;;25.95;16.83;;;4.40;94.60;;;;;;5074579;28;20094;-76
2022/12/12 02:00:04;;;;;;;29.67;18.08;;;4.40;94.50;;;;;;5074469;28;20029;-76
2022/12/12 02:02:30;;;;;;;29.35;18.52;;;4.40;94.50;;;;;;5073977;28;20031;-77
2022/12/12 02:04:59;;;;;;;24.55;15.93;;;4.40;94.50;;;;;;5074230;28;20384;-78
2022/12/12 02:07:24;;;;;;;29.75;18.10;;;4.40;94.50;;;;;;5074039;28;20501;-77
2022/12/12 02:09:50;;;;;;;24.02;16.23;;;4.50;94.50;;;;;;5074512;28;20055;-78
2022/12/12 02:12:16;;;;;;;26.80;17.27;;;4.40;94.50;;;;;;5072816;28;20033;-78
2022/12/12 02:14:46;;;;;;;25.77;16.75;;;4.40;94.50;;;;;;5056449;28;20036;-78
2022/12/12 02:17:27;;;;;;;25.85;16.75;;;4.40;94.50;;;;;;5073102;28;20036;-78
2022/12/12 02:20:26;;;;;;;26.95;17.65;;;4.50;94.50;;;;;;5074356;28;20028;-78
2022/12/12 02:23:25;;;;;;;32.13;18.80;;;4.50;94.60;;;;;;5074166;28;20047;-77
2022/12/12 02:26:32;;;;;;;26.08;16.65;;;4.50;94.70;;;;;;5072851;28;20068;-78
2022/12/12 02:29:04;;;;;;;25.55;15.68;;;4.50;94.70;;;;;;5073002;28;20170;-77
2022/12/12 02:31:47;;;;;;;25.00;15.20;;;4.60;94.70;;;;;;5072698;28;20107;-78
2022/12/12 02:34:26;;;;;;;25.67;16.20;;;4.60;94.60;;;;;;5074057;28;20024;-78
2022/12/12 02:37:26;;;;;;;29.10;16.75;;;4.60;94.60;;;;;;5073862;28;20029;-78
2022/12/12 02:40:19;;;;;;;26.60;16.83;;;4.70;94.60;;;;;;5073897;28;20039;-78
2022/12/12 02:43:03;;;;;;;30.08;17.60;;;4.60;94.60;;;;;;5072742;28;20445;-78
2022/12/12 02:45:35;;;;;;;26.20;17.08;;;4.60;94.60;;;;;;5073665;28;20046;-78
2022/12/12 02:48:18;;;;;;;26.98;16.60;;;4.60;94.60;;;;;;5072617;28;20389;-78
2022/12/12 02:50:46;;;;;;;26.95;17.33;;;4.60;94.60;;;;;;5073451;28;20056;-78
2022/12/12 02:53:12;;;;;;;25.77;16.27;;;4.50;94.60;;;;;;5072385;28;20220;-77
2022/12/12 02:55:37;;;;;;;30.05;18.20;;;4.60;94.70;;;;;;5072541;28;20465;-77
2022/12/12 02:58:05;;;;;;;25.02;16.10;;;4.60;94.70;;;;;;5073348;28;20029;-77
2022/12/12 03:00:41;;;;;;;25.77;16.33;;;4.60;94.80;;;;;;5072439;28;20033;-77
2022/12/12 03:10:01;;;;;;;24.35;16.60;;;4.50;94.70;;;;;;5060739;28;20119;-78
2022/12/12 03:12:47;;;;;;;23.95;15.38;;;4.40;94.60;;;;;;5072602;28;20029;-78
2022/12/12 03:15:29;;;;;;;21.98;15.20;;;4.50;94.60;;;;;;5073558;28;20372;-78
2022/12/12 03:18:04;;;;;;;21.95;14.93;;;4.40;94.60;;;;;;5073596;28;20024;-79
2022/12/12 03:20:39;;;;;;;26.02;15.98;;;4.50;94.90;;;;;;5072151;28;20056;-78
2022/12/12 03:23:17;;;;;;;24.40;15.43;;;4.50;94.50;;;;;;5071956;28;20384;-78
2022/12/12 03:26:20;;;;;;;24.60;15.75;;;4.50;94.50;;;;;;5073515;28;20032;-78
2022/12/12 03:28:54;;;;;;;24.93;15.83;;;4.50;94.40;;;;;;5073229;28;20033;-79
2022/12/12 03:31:27;;;;;;;22.42;14.85;;;4.50;94.40;;;;;;5073398;28;20262;-78
2022/12/12 03:33:57;;;;;;;22.50;15.10;;;4.50;94.40;;;;;;5073522;28;20047;-79
2022/12/12 03:36:32;;;;;;;22.38;14.60;;;4.50;94.40;;;;;;5072226;28;20166;-79
2022/12/12 03:39:09;;;;;;;23.50;15.13;;;4.60;94.40;;;;;;5073202;28;20372;-78
2022/12/12 03:41:40;;;;;;;24.08;14.73;;;4.60;94.30;;;;;;5076638;28;20492;-78
2022/12/12 03:44:14;;;;;;;22.85;14.93;;;4.60;94.40;;;;;;5077111;28;20028;-78
2022/12/12 03:46:55;;;;;;;22.52;14.93;;;4.60;94.30;;;;;;5076801;28;20440;-78
2022/12/12 03:49:29;;;;;;;25.67;15.23;;;4.60;94.30;;;;;;5076940;28;20029;-78
2022/12/12 03:52:35;;;;;;;23.40;14.40;;;4.60;94.20;;;;;;5077169;28;20034;-78
2022/12/12 03:55:03;;;;;;;26.55;16.55;;;4.60;94.20;;;;;;5014982;28;20033;-78
2022/12/12 03:57:59;;;;;;;23.40;15.07;;;4.60;94.20;;;;;;5064470;28;20044;-77
2022/12/12 04:00:27;;;;;;;25.83;15.57;;;4.60;94.20;;;;;;5073910;28;20043;-76
2022/12/12 04:03:38;;;;;;;23.25;15.63;;;4.60;94.20;;;;;;5075441;28;20468;-77
2022/12/12 04:06:42;;;;;;;25.63;15.73;;;4.60;94.20;;;;;;4998294;28;20026;-77
2022/12/12 04:15:38;;;;;;;22.05;14.18;;;4.50;94.10;;;;;;5076802;28;20035;-77
2022/12/12 04:18:58;;;;;;;23.08;14.73;;;4.50;94.10;;;;;;5039265;28;20071;-78
2022/12/12 04:24:30;;;;;;;22.23;14.88;;;4.50;94.00;;;;;;5074758;28;20090;-77
2022/12/12 04:27:08;;;;;;;24.23;14.70;;;4.50;94.00;;;;;;5075528;28;20082;-77
2022/12/12 04:29:49;;;;;;;22.98;14.30;;;4.50;94.00;;;;;;5076426;28;20119;-77
2022/12/12 04:32:31;;;;;;;23.13;14.38;;;4.50;94.00;;;;;;5076720;28;20033;-77
2022/12/12 04:34:59;;;;;;;21.60;13.68;;;4.50;94.00;;;;;;5076011;28;20021;-77
2022/12/12 04:37:32;;;;;;;22.90;14.43;;;4.50;94.00;;;;;;5074741;28;20111;-77
2022/12/12 04:40:01;;;;;;;23.80;14.15;;;4.50;94.00;;;;;;5075022;28;20047;-77
2022/12/12 04:42:32;;;;;;;22.90;14.60;;;4.50;94.00;;;;;;5076234;28;20033;-77
2022/12/12 04:45:07;;;;;;;24.55;15.55;;;4.50;94.00;;;;;;5075933;28;20384;-77
2022/12/12 04:47:36;;;;;;;24.27;14.77;;;4.50;94.00;;;;;;5074593;28;20119;-77
2022/12/12 04:50:02;;;;;;;22.23;14.98;;;4.50;94.00;;;;;;5076125;28;20024;-76
2022/12/12 04:52:32;;;;;;;21.13;13.68;;;4.50;93.90;;;;;;5074708;28;20040;-76
2022/12/12 04:55:05;;;;;;;24.73;14.68;;;4.50;93.90;;;;;;5075814;28;20024;-76
2022/12/12 04:57:57;;;;;;;24.52;14.48;;;4.50;93.90;;;;;;5074790;28;20041;-76
2022/12/12 05:00:25;;;;;;;23.05;15.05;;;4.40;93.90;;;;;;5070413;28;20391;-76
2022/12/12 05:03:05;;;;;;;22.30;14.77;;;4.40;93.90;;;;;;5075741;28;20024;-76
2022/12/12 05:05:43;;;;;;;22.90;15.00;;;4.40;93.80;;;;;;5074445;28;20059;-76
2022/12/12 05:08:22;;;;;;;26.13;16.38;;;4.40;93.80;;;;;;5075569;28;20029;-77
2022/12/12 05:10:53;;;;;;;24.75;15.70;;;4.40;93.90;;;;;;5035736;28;20049;-77
2022/12/12 05:13:27;;;;;;;26.30;15.23;;;4.30;93.90;;;;;;5035373;28;20032;-77
2022/12/12 05:15:54;;;;;;;24.10;15.48;;;4.40;93.90;;;;;;5035428;28;20030;-77
2022/12/12 05:18:21;;;;;;;23.05;14.80;;;4.30;93.90;;;;;;5035944;28;20037;-77
2022/12/12 05:20:47;;;;;;;22.33;15.60;;;4.40;93.90;;;;;;5034294;28;20082;-77
2022/12/12 05:23:12;;;;;;;25.40;15.55;;;4.40;93.90;;;;;;5050543;28;20124;-76
2022/12/12 05:25:38;;;;;;;25.58;15.95;;;4.40;93.90;;;;;;5034107;28;20034;-76
2022/12/12 05:28:04;;;;;;;27.33;17.13;;;4.30;93.90;;;;;;5035086;28;20041;-76
2022/12/12 05:30:29;;;;;;;28.58;16.27;;;4.30;93.90;;;;;;5034234;28;20132;-76
2022/12/12 05:32:55;;;;;;;23.20;15.40;;;4.30;93.90;;;;;;5035667;28;20363;-76
2022/12/12 05:35:21;;;;;;;24.17;15.05;;;4.30;94.00;;;;;;5033789;28;20454;-76
2022/12/12 05:37:47;;;;;;;23.80;15.55;;;4.30;94.00;;;;;;5034041;28;20064;-76
2022/12/12 05:40:13;;;;;;;29.23;16.75;;;4.30;94.00;;;;;;5033868;28;20431;-76
2022/12/12 05:42:39;;;;;;;24.60;15.45;;;4.30;94.00;;;;;;5035178;28;20025;-76
2022/12/12 05:45:07;;;;;;;27.60;15.30;;;4.30;93.90;;;;;;5035025;28;20037;-76
2022/12/12 05:47:33;;;;;;;27.58;16.98;;;4.30;94.00;;;;;;5034856;28;20053;-76
2022/12/12 05:49:58;;;;;;;24.42;15.40;;;4.30;94.00;;;;;;5033524;28;20503;-75
2022/12/12 05:52:24;;;;;;;27.52;16.85;;;4.30;94.00;;;;;;5033303;28;20061;-75
2022/12/12 05:54:50;;;;;;;23.95;15.68;;;4.30;94.00;;;;;;5034782;28;20076;-76
2022/12/12 05:57:17;;;;;;;24.15;15.82;;;4.30;94.00;;;;;;5033250;28;20128;-76
2022/12/12 05:59:44;;;;;;;24.38;16.33;;;4.20;94.00;;;;;;5034755;28;20033;-75
2022/12/12 06:02:10;;;;;;;27.05;16.23;;;4.30;94.10;;;;;;5034603;28;20021;-75
2022/12/12 06:04:35;;;;;;;29.13;17.23;;;4.30;94.10;;;;;;5033106;28;20030;-75
2022/12/12 06:07:01;;;;;;;26.88;17.08;;;4.30;94.10;;;;;;5033394;28;20029;-76
2022/12/12 06:09:27;;;;;;;28.67;16.70;;;4.30;94.10;;;;;;5051751;28;20056;-77
2022/12/12 06:11:52;;;;;;;28.15;17.00;;;4.30;94.10;;;;;;5056640;28;20037;-76
2022/12/12 06:14:18;;;;;;;27.92;16.88;;;4.20;94.10;;;;;;5073021;28;20035;-76
2022/12/12 06:16:44;;;;;;;28.05;17.70;;;4.20;94.10;;;;;;5072906;28;20492;-76
2022/12/12 06:19:09;;;;;;;28.67;17.80;;;4.20;94.20;;;;;;5072956;28;20029;-77
2022/12/12 06:21:35;;;;;;;28.05;18.40;;;4.20;94.20;;;;;;5073998;28;20031;-78
2022/12/12 06:24:01;;;;;;;29.50;18.45;;;4.20;94.20;;;;;;5073636;28;20114;-77
2022/12/12 06:26:26;;;;;;;27.65;17.38;;;4.10;94.30;;;;;;5072794;28;20028;-76
2022/12/12 06:28:52;;;;;;;29.42;18.52;;;4.10;94.30;;;;;;5055949;28;20068;-76
2022/12/12 06:31:18;;;;;;;26.80;17.65;;;4.10;94.30;;;;;;5055569;28;20065;-77
2022/12/12 06:33:44;;;;;;;28.10;18.48;;;4.10;94.30;;;;;;5072634;28;20130;-77
2022/12/12 06:36:18;;;;;;;24.88;15.82;;;4.10;94.30;;;;;;5072799;28;20119;-77
2022/12/12 06:38:44;;;;;;;30.90;18.58;;;4.10;94.40;;;;;;5073872;28;20107;-77
2022/12/12 06:41:12;;;;;;;21.27;12.75;;;4.10;95.10;;;;;;5089579;28;20049;-78
2022/12/12 06:43:39;;;;;;;24.13;12.32;;;4.20;96.30;;;;;;5073442;28;20020;-80
2022/12/12 06:46:07;;;;;;;24.85;15.77;;;4.30;97.40;;;;;;5074212;28;20044;-81
2022/12/12 06:48:34;;;;;;;29.33;17.45;;;4.50;97.80;;;;;;5074335;28;20024;-80
2022/12/12 06:51:05;;;;;;;29.58;18.15;;;4.60;97.50;;;;;;5074304;28;20043;-80
2022/12/12 06:53:30;;;;;;;29.27;18.30;;;4.50;96.70;;;;;;5072916;28;20541;-79
2022/12/12 06:55:56;;;;;;;27.08;15.68;;;4.60;96.40;;;;;;5074506;28;20048;-81
2022/12/12 06:58:22;;;;;;;27.15;16.30;;;4.60;96.70;;;;;;5073393;28;20060;-81
2022/12/12 07:00:52;;;;;;;30.50;17.98;;;4.80;96.90;;;;;;5072268;28;20162;-80
2022/12/12 07:03:18;;;;;;;28.85;17.77;;;4.80;96.20;;;;;;5071858;28;20541;-79
2022/12/12 07:05:46;;;;;;;28.70;17.70;;;4.80;95.90;;;;;;5071869;28;20115;-79
2022/12/12 07:08:12;;;;;;;30.73;18.30;;;4.80;95.50;;;;;;5049386;28;20032;-80
2022/12/12 07:10:37;;;;;;;25.30;15.90;;;4.80;95.50;;;;;;5071229;28;20068;-80
2022/12/12 07:13:03;;;;;;;24.95;15.52;;;4.80;95.30;;;;;;5055195;28;20064;-79
2022/12/12 07:15:29;;;;;;;26.52;16.33;;;4.90;95.40;;;;;;5040989;28;20490;-79
2022/12/12 07:17:55;;;;;;;26.58;16.88;;;4.90;95.30;;;;;;5069846;28;20437;-80
2022/12/12 07:20:21;;;;;;;29.52;17.13;;;5.00;95.20;;;;;;5046750;28;20132;-79
2022/12/12 07:22:46;;;;;;;26.38;17.10;;;5.00;95.20;;;;;;5072233;28;20516;-77
2022/12/12 07:25:12;;;;;;;29.92;17.80;;;5.10;95.30;;;;;;5045101;28;20033;-76
2022/12/12 07:27:37;;;;;;;28.75;18.17;;;5.10;95.00;;;;;;5040058;28;20032;-77
2022/12/12 07:30:03;;;;;;;29.95;17.45;;;5.10;94.80;;;;;;5074449;28;20079;-76
2022/12/12 07:32:29;;;;;;;32.80;17.95;;;5.10;94.50;;;;;;5055596;28;20033;-75
2022/12/12 07:34:55;;;;;;;31.67;18.05;;;5.10;94.50;;;;;;5054035;28;20536;-79
2022/12/12 07:37:21;;;;;;;27.85;17.23;;;5.10;94.20;;;;;;5070951;28;20064;-79
2022/12/12 07:39:46;;;;;;;28.90;18.15;;;5.00;94.20;;;;;;5071398;28;20500;-79
2022/12/12 07:42:12;;;;;;;27.20;17.20;;;5.00;94.10;;;;;;5072862;28;20436;-79
2022/12/12 07:44:38;;;;;;;26.40;15.88;;;5.00;94.00;;;;;;5071941;28;20029;-78
2022/12/12 07:47:04;;;;;;;29.65;18.00;;;5.00;94.30;;;;;;5071468;28;20430;-79
2022/12/12 07:49:29;;;;;;;25.05;15.90;;;5.00;94.40;;;;;;5054777;28;20037;-77
2022/12/12 07:51:55;;;;;;;25.15;15.70;;;5.00;94.60;;;;;;5072102;28;20163;-80
2022/12/12 07:54:21;;;;;;;11.02;6.35;;;5.10;94.40;;;;;;5089328;28;20028;-73
2022/12/12 07:56:46;;;;;;;27.30;15.90;;;5.70;99.90;;;;;;5071590;28;20040;-75
2022/12/12 07:59:12;;;;;;;25.98;17.20;;;7.20;99.90;;;;;;5071429;28;20036;-75
2022/12/12 08:01:38;;;;;;;27.70;16.52;;;7.40;99.90;;;;;;5071606;28;20040;-75
2022/12/12 08:04:04;;;;;;;27.63;17.60;;;7.20;99.30;;;;;;5071764;28;20415;-76
2022/12/12 08:06:30;;;;;;;27.10;16.98;;;7.00;98.20;;;;;;5054492;28;20063;-77
2022/12/12 08:08:56;;;;;;;27.75;16.80;;;6.80;97.80;;;;;;5071497;28;20041;-77
2022/12/12 08:11:24;;;;;;;27.70;16.92;;;6.50;96.70;;;;;;5054458;28;20106;-76
2022/12/12 08:13:50;;;;;;;28.45;16.67;;;6.30;95.80;;;;;;5071435;28;20029;-76
2022/12/12 08:16:24;;;;;;;28.60;17.35;;;6.20;95.40;;;;;;5071474;28;20515;-77
2022/12/12 08:18:53;;;;;;;29.02;18.73;;;6.10;95.00;;;;;;5071747;28;20082;-76
2022/12/12 08:21:18;;;;;;;27.48;17.35;;;5.90;94.80;;;;;;5071593;28;20024;-77
2022/12/12 08:23:44;;;;;;;27.70;17.23;;;5.80;94.10;;;;;;5072245;28;20094;-77
2022/12/12 08:26:13;;;;;;;30.95;17.77;;;5.70;93.90;;;;;;5054992;28;20055;-77
2022/12/12 08:28:48;;;;;;;25.02;16.17;;;5.60;93.50;;;;;;5076594;28;20029;-77
2022/12/12 08:31:15;;;;;;;27.70;16.83;;;5.40;93.50;;;;;;5076458;28;20021;-77
2022/12/12 08:33:40;;;;;;;28.33;18.35;;;5.30;93.50;;;;;;5058535;28;20033;-76
2022/12/12 08:36:22;;;;;;;27.83;16.77;;;5.30;93.40;;;;;;5074883;28;20036;-76
2022/12/12 08:38:48;;;;;;;28.00;17.00;;;5.20;93.40;;;;;;5074974;28;20037;-76
2022/12/12 08:41:14;;;;;;;29.45;17.48;;;5.10;93.40;;;;;;5057913;28;20033;-76
2022/12/12 08:43:42;;;;;;;28.98;17.20;;;5.10;93.50;;;;;;5076048;28;20035;-76
2022/12/12 08:46:10;;;;;;;33.25;18.02;;;5.10;93.80;;;;;;5060067;28;20033;-76
2022/12/12 08:48:35;;;;;;;28.83;17.50;;;5.00;93.80;;;;;;5074639;28;20043;-76
2022/12/12 08:51:01;;;;;;;34.40;19.13;;;4.90;93.80;;;;;;5057400;28;20025;-76
2022/12/12 08:53:27;;;;;;;28.13;16.92;;;4.70;93.70;;;;;;5074187;28;20051;-76
2022/12/12 08:55:53;;;;;;;29.90;18.88;;;4.70;94.00;;;;;;5091739;28;20036;-75
2022/12/12 08:58:18;;;;;;;31.83;19.08;;;4.60;94.30;;;;;;5075609;28;20025;-80
2022/12/12 09:00:44;;;;;;;30.10;17.90;;;4.60;94.30;;;;;;5059441;28;20469;-79
2022/12/12 09:03:10;;;;;;;33.33;18.30;;;4.60;94.50;;;;;;5058809;28;20028;-78
2022/12/12 09:05:35;;;;;;;31.83;18.45;;;4.70;94.50;;;;;;5076027;28;20032;-79
2022/12/12 09:08:01;;;;;;;33.33;18.65;;;4.70;94.00;;;;;;5058410;28;20046;-77
2022/12/12 09:10:27;;;;;;;31.27;17.65;;;4.70;94.00;;;;;;5074104;28;20499;-76
2022/12/12 09:12:54;;;;;;;34.63;18.63;;;4.70;93.80;;;;;;5074175;28;20032;-74
2022/12/12 09:15:20;;;;;;;36.20;18.45;;;4.70;93.70;;;;;;5075240;28;20032;-75
2022/12/12 09:17:46;;;;;;;37.90;19.35;;;4.60;93.50;;;;;;5073397;28;20052;-75
2022/12/12 09:20:12;;;;;;;34.92;19.45;;;4.50;93.40;;;;;;5055983;28;20519;-75
2022/12/12 09:22:38;;;;;;;34.53;19.00;;;4.40;93.30;;;;;;5073878;28;20033;-74
2022/12/12 09:25:05;;;;;;;33.65;18.02;;;4.30;93.00;;;;;;5072344;28;20036;-75
2022/12/12 09:27:30;;;;;;;31.15;18.13;;;4.20;93.40;;;;;;5073687;28;20050;-75
2022/12/12 09:29:56;;;;;;;30.08;16.77;;;4.20;93.90;;;;;;5074247;28;20025;-75
2022/12/12 09:32:22;;;;;;;32.50;18.05;;;4.30;93.80;;;;;;5057048;28;20162;-73
2022/12/12 09:34:48;;;;;;;34.03;18.65;;;4.30;93.90;;;;;;5073742;28;20036;-76
2022/12/12 09:37:13;;;;;;;31.52;17.67;;;4.30;93.70;;;;;;5089805;28;20078;-78
2022/12/12 09:39:39;;;;;;;34.53;16.95;;;4.30;93.60;;;;;;5086039;28;20154;-77
2022/12/12 09:42:27;;;;;;;32.60;18.65;;;4.30;93.70;;;;;;5073752;28;20037;-77
2022/12/12 09:44:57;;;;;;;28.05;16.60;;;4.20;93.30;;;;;;5059442;28;20392;-77
2022/12/12 09:47:34;;;;;;;31.67;17.30;;;4.20;93.70;;;;;;5075117;28;20025;-78
2022/12/12 09:50:15;;;;;;;35.20;19.45;;;4.30;93.80;;;;;;5074967;28;20032;-78
2022/12/12 09:52:42;;;;;;;39.58;20.27;;;4.20;93.00;;;;;;5074730;28;20063;-77
2022/12/12 09:55:24;;;;;;;30.73;18.02;;;4.00;93.30;;;;;;5073424;28;20036;-77
2022/12/12 09:58:07;;;;;;;31.00;17.25;;;4.00;93.80;;;;;;5074495;28;20024;-78
2022/12/12 10:00:37;;;;;;;29.23;16.63;;;4.10;94.00;;;;;;5074547;28;20025;-78
2022/12/12 10:03:21;;;;;;;30.85;16.73;;;4.40;94.10;;;;;;5073125;28;20028;-78
2022/12/12 10:06:04;;;;;;;34.13;19.60;;;4.50;93.90;;;;;;5072770;28;20485;-79
2022/12/12 10:08:49;;;;;;;32.15;17.98;;;4.60;93.30;;;;;;5072854;28;20048;-78
2022/12/12 10:14:11;;;;;;;31.35;17.98;;;4.40;92.80;;;;;;5074374;28;20036;-78
2022/12/12 10:16:38;;;;;;;32.72;18.13;;;4.50;92.90;;;;;;5073037;28;20024;-78
2022/12/12 10:19:13;;;;;;;34.88;17.80;;;4.50;92.70;;;;;;5074018;28;20100;-77
2022/12/12 10:21:39;;;;;;;32.00;17.30;;;4.60;92.60;;;;;;5074117;28;20031;-77
2022/12/12 10:24:50;;;;;;;30.52;17.83;;;4.50;92.30;;;;;;5073817;28;20037;-77
2022/12/12 10:27:16;;;;;;;33.88;17.83;;;4.60;92.20;;;;;;4988506;28;20086;-76
2022/12/12 10:29:46;;;;;;;30.15;16.95;;;4.50;91.90;;;;;;5058059;28;20049;-75
2022/12/12 10:32:26;;;;;;;34.33;16.65;;;4.50;92.10;;;;;;5052842;28;20024;-75
2022/12/12 10:35:31;;;;;;;32.58;18.00;;;4.40;92.20;;;;;;5073958;28;20028;-75
2022/12/12 10:38:24;;;;;;;27.38;15.25;;;4.30;92.00;;;;;;5072673;28;20046;-75
2022/12/12 10:41:09;;;;;;;29.67;16.30;;;4.40;92.30;;;;;;5074150;28;20117;-78
2022/12/12 10:44:07;;;;;;;30.17;16.17;;;4.40;92.10;;;;;;5072916;28;20380;-77
2022/12/12 10:47:01;;;;;;;31.27;14.93;;;4.50;92.00;;;;;;5072470;28;20033;-77
2022/12/12 10:49:29;;;;;;;28.63;15.00;;;4.50;92.10;;;;;;5069459;28;20087;-78
2022/12/12 10:51:56;;;;;;;25.67;14.73;;;4.60;92.00;;;;;;5073646;28;20107;-78
2022/12/12 10:54:25;;;;;;;27.55;15.65;;;4.70;92.10;;;;;;5074417;28;20060;-78
2022/12/12 10:57:23;;;;;;;25.08;13.57;;;4.80;92.10;;;;;;5072306;28;20024;-76
2022/12/12 10:59:51;;;;;;;27.63;14.20;;;5.00;92.10;;;;;;5064620;28;20060;-75
2022/12/12 11:02:27;;;;;;;28.60;15.82;;;5.10;91.70;;;;;;5073261;28;20052;-76
2022/12/12 11:05:19;;;;;;;29.63;15.15;;;5.10;91.50;;;;;;5072128;28;20387;-77
2022/12/12 11:07:58;;;;;;;25.17;13.75;;;5.20;91.40;;;;;;5066301;28;20064;-77
2022/12/12 11:10:27;;;;;;;27.50;15.48;;;5.20;91.40;;;;;;5073081;28;20049;-76
2022/12/12 11:12:58;;;;;;;25.38;15.02;;;5.30;91.30;;;;;;5073299;28;20052;-76
2022/12/12 11:15:43;;;;;;;19.15;9.55;;;5.30;91.00;;;;;;5072554;28;20462;-73
2022/12/12 11:18:17;;;;;;;26.85;13.85;;;5.40;96.40;;;;;;5072308;28;20028;-78
2022/12/12 11:20:46;;;;;;;25.65;14.80;;;5.80;97.40;;;;;;5075385;28;20020;-78
2022/12/12 11:23:17;;;;;;;26.73;15.15;;;5.90;95.40;;;;;;5078038;28;20020;-78
2022/12/12 11:25:43;;;;;;;25.02;14.43;;;5.70;92.80;;;;;;5077486;28;20028;-78
2022/12/12 11:28:18;;;;;;;27.58;15.20;;;5.60;92.30;;;;;;5077944;28;20045;-78
2022/12/12 11:30:49;;;;;;;27.48;14.68;;;5.60;92.00;;;;;;5074080;28;20021;-77
2022/12/12 11:33:20;;;;;;;26.35;14.60;;;5.60;91.90;;;;;;5076650;28;20035;-78
2022/12/12 11:35:53;;;;;;;26.40;14.40;;;5.50;91.10;;;;;;5076079;28;20429;-77
2022/12/12 11:38:25;;;;;;;25.92;14.10;;;5.50;91.20;;;;;;5078934;28;20026;-77
2022/12/12 11:41:03;;;;;;;25.10;14.70;;;5.60;91.00;;;;;;5075982;28;20032;-78
2022/12/12 11:43:51;;;;;;;23.88;14.40;;;5.60;90.80;;;;;;5076999;28;20021;-78
2022/12/12 11:46:22;;;;;;;26.27;13.15;;;5.60;90.80;;;;;;5074261;28;20048;-77
2022/12/12 11:48:50;;;;;;;22.10;12.45;;;5.60;90.60;;;;;;5071752;28;20036;-77
2022/12/12 11:51:41;;;;;;;25.67;13.48;;;5.70;90.70;;;;;;5073035;28;20055;-77
2022/12/12 11:54:19;;;;;;;21.25;12.15;;;5.60;90.20;;;;;;5072507;28;20078;-76
2022/12/12 11:57:18;;;;;;;22.58;11.63;;;5.70;90.10;;;;;;5071628;28;20120;-77
2022/12/12 11:59:53;;;;;;;20.85;10.63;;;5.70;89.50;;;;;;5072006;28;20032;-77
2022/12/12 12:03:05;;;;;;;22.77;11.77;;;5.70;88.90;;;;;;5076450;28;20032;-77
2022/12/12 12:06:00;;;;;;;22.92;11.48;;;5.60;87.30;;;;;;5075656;28;20111;-77
2022/12/12 12:08:47;;;;;;;24.30;11.60;;;5.60;88.10;;;;;;5077040;28;20040;-77
2022/12/12 12:11:53;;;;;;;22.55;12.10;;;5.60;88.50;;;;;;5075937;28;20051;-77
2022/12/12 12:14:33;;;;;;;26.80;12.52;;;5.70;87.80;;;;;;5055724;28;20044;-78
2022/12/12 12:17:29;;;;;;;22.75;12.07;;;5.70;87.70;;;;;;5077330;28;20111;-77
2022/12/12 12:20:02;;;;;;;24.88;12.38;;;5.70;87.70;;;;;;5077920;28;20031;-78
2022/12/12 12:22:49;;;;;;;20.63;11.05;;;5.70;87.10;;;;;;5077196;28;20107;-78
2022/12/12 12:25:33;;;;;;;20.42;10.98;;;5.70;87.20;;;;;;5077020;28;20025;-77
2022/12/12 12:27:58;;;;;;;;;;;5.70;87.10;;;;;;5076116;28;20392;-77
2022/12/12 12:30:32;;;;;;;22.52;11.40;;;5.70;87.10;;;;;;5075536;28;19905;-77
2022/12/12 12:33:11;;;;;;;22.20;11.18;;;5.80;86.20;;;;;;5076862;28;20130;-77
2022/12/12 12:36:08;;;;;;;19.30;10.35;;;5.80;86.10;;;;;;5076555;28;20048;-77
2022/12/12 12:38:59;;;;;;;19.08;10.52;;;5.90;86.10;;;;;;5075630;28;20045;-77
2022/12/12 12:41:59;;;;;;;22.75;11.20;;;5.90;85.50;;;;;;5076176;28;20067;-77
2022/12/12 12:44:58;;;;;;;25.27;11.30;;;6.00;85.10;;;;;;5075514;28;20044;-78
2022/12/12 12:47:54;;;;;;;25.50;11.75;;;6.10;84.20;;;;;;5077304;28;20028;-78
2022/12/12 12:50:34;;;;;;;20.92;11.23;;;6.10;84.40;;;;;;5076842;28;20342;-78
2022/12/12 12:53:06;;;;;;;21.20;11.10;;;6.30;84.50;;;;;;5078694;28;20024;-78
2022/12/12 12:55:42;;;;;;;19.58;10.38;;;6.40;84.10;;;;;;5077743;28;20067;-77
2022/12/12 12:58:17;;;;;;;18.42;10.38;;;6.50;84.10;;;;;;5076581;28;20032;-77
2022/12/12 13:00:43;;;;;;;21.33;11.10;;;6.60;84.30;;;;;;5077321;28;20047;-77
2022/12/12 13:03:16;;;;;;;21.33;10.18;;;6.70;84.10;;;;;;5084023;28;20045;-79
2022/12/12 13:05:49;;;;;;;18.65;9.73;;;6.90;83.40;;;;;;5085225;28;20073;-79
2022/12/12 13:08:25;;;;;;;20.58;10.77;;;7.00;82.90;;;;;;5076840;28;20101;-78
2022/12/12 13:10:57;;;;;;;20.02;11.15;;;7.10;81.70;;;;;;5075520;28;20083;-76
2022/12/12 13:13:25;;;;;;;19.40;10.00;;;7.10;81.00;;;;;;5075680;28;20085;-78
2022/12/12 13:16:04;;;;;;;19.08;10.32;;;7.20;81.00;;;;;;5074855;28;20039;-77
2022/12/12 13:18:31;;;;;;;19.10;9.93;;;7.30;81.20;;;;;;5075476;28;20029;-74
2022/12/12 13:21:09;;;;;;;21.05;10.40;;;7.40;80.80;;;;;;5075745;28;20040;-74
2022/12/12 13:24:05;;;;;;;16.13;8.43;;;7.50;79.40;;;;;;5075273;28;20028;-75
2022/12/12 13:26:39;;;;;;;18.55;8.90;;;7.50;78.50;;;;;;5075491;28;20032;-74